sensor_id;sensor_type;location;lat;lon;timestamp;temperature;humidity
59703;DHT22;45570;48.782;8.332;2023-07-29T07:38:33;19.90;99.90
59703;DHT22;45570;48.782;8.332;2023-07-29T07:41:03;20.70;99.90
59703;DHT22;45570;48.782;8.332;2023-07-29T07:43:35;20.90;99.90
59703;DHT22;45570;48.782;8.332;2023-07-29T07:46:10;21.10;99.90
59703;DHT22;45570;48.782;8.332;2023-07-29T07:48:39;21.10;99.90
59703;DHT22;45570;48.782;8.332;2023-07-29T08:07:57;20.60;99.90
59703;DHT22;45570;48.782;8.332;2023-07-29T08:10:27;20.70;99.90
59703;DHT22;45570;48.782;8.332;2023-07-29T08:12:56;20.80;99.90
59703;DHT22;45570;48.782;8.332;2023-07-29T08:15:25;21.00;99.90
59703;DHT22;45570;48.782;8.332;2023-07-29T08:17:54;21.10;99.90
59703;DHT22;45570;48.782;8.332;2023-07-29T08:20:24;21.30;99.90
59703;DHT22;45570;48.782;8.332;2023-07-29T08:22:53;21.40;99.90
59703;DHT22;45570;48.782;8.332;2023-07-29T08:25:24;21.50;99.90
59703;DHT22;45570;48.782;8.332;2023-07-29T08:27:53;21.60;99.90
59703;DHT22;45570;48.782;8.332;2023-07-29T08:30:22;21.70;99.90
59703;DHT22;45570;48.782;8.332;2023-07-29T08:32:51;21.90;99.90
59703;DHT22;45570;48.782;8.332;2023-07-29T08:35:21;21.90;99.90
59703;DHT22;45570;48.782;8.332;2023-07-29T08:37:50;21.80;99.90
59703;DHT22;45570;48.782;8.332;2023-07-29T08:40:22;21.80;99.90
59703;DHT22;45570;48.782;8.332;2023-07-29T08:42:58;21.70;99.90
59703;DHT22;45570;48.782;8.332;2023-07-29T08:45:27;21.60;99.90
59703;DHT22;45570;48.782;8.332;2023-07-29T08:47:59;21.50;99.90
59703;DHT22;45570;48.782;8.332;2023-07-29T08:50:29;21.40;99.90
59703;DHT22;45570;48.782;8.332;2023-07-29T08:53:04;21.30;99.90
59703;DHT22;45570;48.782;8.332;2023-07-29T08:55:34;21.20;99.90
59703;DHT22;45570;48.782;8.332;2023-07-29T08:58:05;21.10;99.90
59703;DHT22;45570;48.782;8.332;2023-07-29T09:00:35;21.10;99.90
59703;DHT22;45570;48.782;8.332;2023-07-29T10:07:21;20.20;99.90
59703;DHT22;45570;48.782;8.332;2023-07-29T10:09:52;20.40;99.90
59703;DHT22;45570;48.782;8.332;2023-07-29T10:12:22;20.50;99.90
59703;DHT22;45570;48.782;8.332;2023-07-29T10:14:52;20.70;99.90
59703;DHT22;45570;48.782;8.332;2023-07-29T10:17:22;20.70;99.90
59703;DHT22;45570;48.782;8.332;2023-07-29T10:19:53;20.90;99.90
59703;DHT22;45570;48.782;8.332;2023-07-29T10:22:27;20.90;99.90
59703;DHT22;45570;48.782;8.332;2023-07-29T10:25:03;21.20;99.90
59703;DHT22;45570;48.782;8.332;2023-07-29T10:27:52;21.40;99.90
59703;DHT22;45570;48.782;8.332;2023-07-29T10:30:22;21.40;99.90
59703;DHT22;45570;48.782;8.332;2023-07-29T10:32:53;21.50;99.90
59703;DHT22;45570;48.782;8.332;2023-07-29T10:35:30;21.50;99.90
59703;DHT22;45570;48.782;8.332;2023-07-29T10:38:02;21.50;99.90
59703;DHT22;45570;48.782;8.332;2023-07-29T10:40:45;21.50;99.90
59703;DHT22;45570;48.782;8.332;2023-07-29T10:43:20;21.60;99.90
59703;DHT22;45570;48.782;8.332;2023-07-29T10:45:55;21.90;99.90
59703;DHT22;45570;48.782;8.332;2023-07-29T10:48:43;22.20;99.90
59703;DHT22;45570;48.782;8.332;2023-07-29T10:51:24;22.50;99.90
59703;DHT22;45570;48.782;8.332;2023-07-29T10:54:13;22.50;99.90
59703;DHT22;45570;48.782;8.332;2023-07-29T10:56:48;22.70;99.90
59703;DHT22;45570;48.782;8.332;2023-07-29T10:59:32;22.70;99.90
59703;DHT22;45570;48.782;8.332;2023-07-29T11:02:12;22.70;99.90
59703;DHT22;45570;48.782;8.332;2023-07-29T11:04:48;22.90;99.90
59703;DHT22;45570;48.782;8.332;2023-07-29T11:07:20;22.80;99.90
59703;DHT22;45570;48.782;8.332;2023-07-29T11:09:56;23.00;99.90
59703;DHT22;45570;48.782;8.332;2023-07-29T11:12:39;23.60;99.90
59703;DHT22;45570;48.782;8.332;2023-07-29T11:15:16;24.00;99.90
59703;DHT22;45570;48.782;8.332;2023-07-29T11:17:46;24.30;99.90
59703;DHT22;45570;48.782;8.332;2023-07-29T11:20:16;24.30;99.90
59703;DHT22;45570;48.782;8.332;2023-07-29T11:22:46;24.30;99.90
59703;DHT22;45570;48.782;8.332;2023-07-29T11:25:17;24.20;99.90
59703;DHT22;45570;48.782;8.332;2023-07-29T11:27:47;24.00;99.90
59703;DHT22;45570;48.782;8.332;2023-07-29T11:30:16;24.10;99.90
59703;DHT22;45570;48.782;8.332;2023-07-29T11:32:47;24.10;99.90
59703;DHT22;45570;48.782;8.332;2023-07-29T11:35:17;24.10;99.90
59703;DHT22;45570;48.782;8.332;2023-07-29T11:37:47;24.20;99.90
59703;DHT22;45570;48.782;8.332;2023-07-29T11:40:20;24.10;99.90
59703;DHT22;45570;48.782;8.332;2023-07-29T11:42:51;24.10;99.90
59703;DHT22;45570;48.782;8.332;2023-07-29T11:45:22;24.00;99.90
59703;DHT22;45570;48.782;8.332;2023-07-29T11:48:06;24.00;99.90
59703;DHT22;45570;48.782;8.332;2023-07-29T11:50:36;24.10;99.90
59703;DHT22;45570;48.782;8.332;2023-07-29T11:53:06;24.40;99.90
59703;DHT22;45570;48.782;8.332;2023-07-29T11:55:37;24.50;99.90
59703;DHT22;45570;48.782;8.332;2023-07-29T11:58:07;24.40;99.90
59703;DHT22;45570;48.782;8.332;2023-07-29T12:00:38;24.40;99.90
59703;DHT22;45570;48.782;8.332;2023-07-29T12:03:08;24.10;99.90
59703;DHT22;45570;48.782;8.332;2023-07-29T12:05:39;23.90;99.90
59703;DHT22;45570;48.782;8.332;2023-07-29T12:08:26;24.00;99.90
59703;DHT22;45570;48.782;8.332;2023-07-29T12:10:58;24.00;99.90
59703;DHT22;45570;48.782;8.332;2023-07-29T12:13:27;24.00;99.90
59703;DHT22;45570;48.782;8.332;2023-07-29T12:16:02;24.00;99.90
59703;DHT22;45570;48.782;8.332;2023-07-29T12:18:31;23.80;99.90
59703;DHT22;45570;48.782;8.332;2023-07-29T12:21:01;23.80;99.90
59703;DHT22;45570;48.782;8.332;2023-07-29T12:23:31;23.60;99.90
59703;DHT22;45570;48.782;8.332;2023-07-29T12:26:02;23.60;99.90
59703;DHT22;45570;48.782;8.332;2023-07-29T12:28:32;23.60;99.90
59703;DHT22;45570;48.782;8.332;2023-07-29T12:31:01;23.50;99.90
59703;DHT22;45570;48.782;8.332;2023-07-29T12:33:31;23.50;99.90
59703;DHT22;45570;48.782;8.332;2023-07-29T12:36:01;23.50;99.90
59703;DHT22;45570;48.782;8.332;2023-07-29T12:38:31;23.70;99.90
59703;DHT22;45570;48.782;8.332;2023-07-29T12:41:02;24.10;99.90
59703;DHT22;45570;48.782;8.332;2023-07-29T12:43:31;24.30;99.90
59703;DHT22;45570;48.782;8.332;2023-07-29T12:46:02;24.50;99.90
59703;DHT22;45570;48.782;8.332;2023-07-29T12:48:31;24.60;99.90
59703;DHT22;45570;48.782;8.332;2023-07-29T12:51:00;24.60;99.90
59703;DHT22;45570;48.782;8.332;2023-07-29T12:53:29;24.60;99.90
59703;DHT22;45570;48.782;8.332;2023-07-29T12:55:59;24.60;99.90
59703;DHT22;45570;48.782;8.332;2023-07-29T12:58:31;24.60;99.90
59703;DHT22;45570;48.782;8.332;2023-07-29T13:01:08;24.70;99.90
59703;DHT22;45570;48.782;8.332;2023-07-29T13:03:41;24.60;99.90
59703;DHT22;45570;48.782;8.332;2023-07-29T13:06:10;24.40;99.90
59703;DHT22;45570;48.782;8.332;2023-07-29T13:08:39;24.30;99.90
59703;DHT22;45570;48.782;8.332;2023-07-29T13:11:09;24.40;99.90
59703;DHT22;45570;48.782;8.332;2023-07-29T17:01:26;23.10;99.90
59703;DHT22;45570;48.782;8.332;2023-07-29T17:03:55;22.90;99.90
59703;DHT22;45570;48.782;8.332;2023-07-29T17:06:24;22.70;99.90
59703;DHT22;45570;48.782;8.332;2023-07-29T17:08:53;22.70;99.90
59703;DHT22;45570;48.782;8.332;2023-07-29T17:11:39;22.60;99.90
59703;DHT22;45570;48.782;8.332;2023-07-29T17:14:19;22.50;99.90
59703;DHT22;45570;48.782;8.332;2023-07-29T17:16:57;22.50;99.90
59703;DHT22;45570;48.782;8.332;2023-07-29T17:19:26;22.50;99.90
59703;DHT22;45570;48.782;8.332;2023-07-29T17:21:56;22.50;99.90
59703;DHT22;45570;48.782;8.332;2023-07-29T17:24:26;22.50;99.90
59703;DHT22;45570;48.782;8.332;2023-07-29T17:26:57;22.40;99.90
59703;DHT22;45570;48.782;8.332;2023-07-29T17:29:27;22.30;99.90
59703;DHT22;45570;48.782;8.332;2023-07-29T17:32:07;22.30;99.90
59703;DHT22;45570;48.782;8.332;2023-07-29T17:34:54;22.30;99.90
59703;DHT22;45570;48.782;8.332;2023-07-29T17:37:24;22.30;99.90
59703;DHT22;45570;48.782;8.332;2023-07-29T17:39:54;22.40;99.90
59703;DHT22;45570;48.782;8.332;2023-07-29T17:42:25;22.40;99.90
59703;DHT22;45570;48.782;8.332;2023-07-29T17:44:54;22.30;99.90
59703;DHT22;45570;48.782;8.332;2023-07-29T17:47:24;22.20;99.90
59703;DHT22;45570;48.782;8.332;2023-07-29T17:49:53;22.20;99.90
59703;DHT22;45570;48.782;8.332;2023-07-29T17:52:26;22.10;99.90
59703;DHT22;45570;48.782;8.332;2023-07-29T17:54:55;22.10;99.90
59703;DHT22;45570;48.782;8.332;2023-07-29T17:57:27;22.00;99.90
59703;DHT22;45570;48.782;8.332;2023-07-29T17:59:57;22.00;99.90
59703;DHT22;45570;48.782;8.332;2023-07-29T18:02:27;22.00;99.90
59703;DHT22;45570;48.782;8.332;2023-07-29T18:04:57;22.00;99.90
59703;DHT22;45570;48.782;8.332;2023-07-29T18:07:28;22.00;99.90
59703;DHT22;45570;48.782;8.332;2023-07-29T18:09:57;22.00;99.90
59703;DHT22;45570;48.782;8.332;2023-07-29T18:12:28;22.00;99.90
59703;DHT22;45570;48.782;8.332;2023-07-29T18:14:58;21.90;99.90
59703;DHT22;45570;48.782;8.332;2023-07-29T18:17:27;22.00;99.90
59703;DHT22;45570;48.782;8.332;2023-07-29T18:19:56;22.00;99.90
59703;DHT22;45570;48.782;8.332;2023-07-29T18:22:26;22.00;99.90
59703;DHT22;45570;48.782;8.332;2023-07-29T18:24:56;21.90;99.90
59703;DHT22;45570;48.782;8.332;2023-07-29T18:35:35;21.80;99.90
59703;DHT22;45570;48.782;8.332;2023-07-29T18:38:34;21.70;99.90
59703;DHT22;45570;48.782;8.332;2023-07-29T18:41:12;21.70;99.90
59703;DHT22;45570;48.782;8.332;2023-07-29T18:43:46;21.60;99.90
59703;DHT22;45570;48.782;8.332;2023-07-29T18:46:21;21.50;99.90
59703;DHT22;45570;48.782;8.332;2023-07-29T18:48:55;21.50;99.90
59703;DHT22;45570;48.782;8.332;2023-07-29T18:51:28;21.40;99.90
59703;DHT22;45570;48.782;8.332;2023-07-29T18:53:58;21.30;99.90
59703;DHT22;45570;48.782;8.332;2023-07-29T18:56:27;21.20;99.90
59703;DHT22;45570;48.782;8.332;2023-07-29T18:58:57;21.10;99.90
59703;DHT22;45570;48.782;8.332;2023-07-29T19:01:26;21.10;99.90
59703;DHT22;45570;48.782;8.332;2023-07-29T19:03:56;21.10;99.90
59703;DHT22;45570;48.782;8.332;2023-07-29T19:07:00;21.00;99.90
59703;DHT22;45570;48.782;8.332;2023-07-29T19:09:42;20.90;99.90
59703;DHT22;45570;48.782;8.332;2023-07-29T19:12:12;20.80;99.90
59703;DHT22;45570;48.782;8.332;2023-07-29T19:14:42;20.80;99.90
59703;DHT22;45570;48.782;8.332;2023-07-29T19:17:12;20.60;99.90
59703;DHT22;45570;48.782;8.332;2023-07-29T19:19:42;20.40;99.90
59703;DHT22;45570;48.782;8.332;2023-07-29T19:22:13;20.30;99.90
59703;DHT22;45570;48.782;8.332;2023-07-29T19:24:44;20.20;99.90
59703;DHT22;45570;48.782;8.332;2023-07-29T19:27:15;20.10;99.90
59703;DHT22;45570;48.782;8.332;2023-07-29T19:29:47;20.00;99.90
59703;DHT22;45570;48.782;8.332;2023-07-29T19:32:17;19.90;99.90
59703;DHT22;45570;48.782;8.332;2023-07-29T19:34:52;19.80;99.90
59703;DHT22;45570;48.782;8.332;2023-07-29T19:37:25;19.90;99.90
59703;DHT22;45570;48.782;8.332;2023-07-29T19:39:54;19.80;99.90
59703;DHT22;45570;48.782;8.332;2023-07-29T19:42:25;19.80;99.90
59703;DHT22;45570;48.782;8.332;2023-07-29T19:44:59;19.70;99.90
59703;DHT22;45570;48.782;8.332;2023-07-29T19:49:36;19.60;99.90
